createdAt,value
2023-03-17T00:01:18.698Z,17.13
2023-03-17T00:03:46.746Z,20.07
2023-03-17T00:06:19.145Z,16.33
2023-03-17T00:08:47.278Z,16.27
2023-03-17T00:11:16.059Z,16.83
2023-03-17T00:13:44.668Z,14.47
2023-03-17T00:16:17.891Z,16.27
2023-03-17T00:18:45.733Z,17.07
2023-03-17T00:21:14.627Z,18.57
2023-03-17T00:23:44.839Z,19.93
2023-03-17T00:26:12.240Z,18.93
2023-03-17T00:28:41.013Z,17.67
2023-03-17T00:31:13.791Z,17.60
2023-03-17T00:33:41.684Z,17.90
2023-03-17T00:36:17.989Z,20.93
2023-03-17T00:41:13.464Z,19.17
2023-03-17T00:43:41.159Z,22.60
2023-03-17T00:46:14.729Z,18.53
2023-03-17T00:48:43.510Z,18.83
2023-03-17T00:51:12.651Z,15.40
2023-03-17T00:53:40.598Z,20.23
2023-03-17T00:56:15.848Z,16.53
2023-03-17T00:58:43.714Z,15.57
2023-03-17T01:01:11.392Z,19.23
2023-03-17T01:03:38.910Z,16.97
2023-03-17T01:06:07.947Z,15.90
2023-03-17T01:08:37.281Z,16.97
2023-03-17T01:11:05.546Z,16.03
2023-03-17T01:13:34.262Z,15.13
2023-03-17T01:16:01.688Z,15.20
2023-03-17T01:18:29.181Z,15.90
2023-03-17T01:20:56.772Z,14.53
2023-03-17T01:23:24.103Z,14.50
2023-03-17T01:25:51.506Z,15.97
2023-03-17T01:28:19.257Z,17.93
2023-03-17T01:30:47.011Z,13.87
2023-03-17T01:33:14.848Z,17.07
2023-03-17T01:35:43.878Z,16.70
2023-03-17T01:38:11.865Z,14.37
2023-03-17T01:40:46.964Z,14.90
2023-03-17T01:43:23.167Z,16.30
2023-03-17T01:46:22.977Z,15.10
2023-03-17T01:49:03.688Z,16.60
2023-03-17T01:51:44.627Z,13.93
2023-03-17T01:54:21.904Z,14.07
2023-03-17T01:56:50.075Z,17.37
2023-03-17T01:59:24.094Z,17.10
2023-03-17T02:01:53.452Z,14.03
2023-03-17T02:04:21.945Z,13.80
2023-03-17T02:06:59.337Z,14.70
2023-03-17T02:09:27.216Z,14.90
2023-03-17T02:11:55.653Z,14.00
2023-03-17T02:14:23.738Z,16.20
2023-03-17T02:16:51.423Z,14.73
2023-03-17T02:19:18.799Z,14.27
2023-03-17T02:21:54.128Z,13.73
2023-03-17T02:24:32.144Z,14.87
2023-03-17T02:27:21.235Z,12.83
2023-03-17T02:29:49.145Z,12.70
2023-03-17T02:32:17.805Z,15.23
2023-03-17T02:34:46.471Z,12.23
2023-03-17T02:37:14.568Z,12.63
2023-03-17T02:39:42.587Z,15.00
2023-03-17T02:42:10.244Z,14.33
2023-03-17T02:44:38.314Z,14.13
2023-03-17T02:47:07.417Z,13.93
2023-03-17T02:49:34.759Z,13.20
2023-03-17T02:52:02.614Z,14.03
2023-03-17T02:54:29.948Z,12.60
2023-03-17T02:56:57.327Z,12.90
2023-03-17T02:59:25.226Z,12.10
2023-03-17T03:01:52.786Z,13.33
2023-03-17T03:04:20.300Z,12.53
2023-03-17T03:06:47.917Z,12.77
2023-03-17T03:09:15.404Z,12.40
2023-03-17T03:11:42.960Z,12.70
2023-03-17T03:14:11.081Z,12.70
2023-03-17T03:16:38.531Z,13.97
2023-03-17T03:19:06.120Z,13.37
2023-03-17T03:21:33.795Z,12.37
2023-03-17T03:24:01.264Z,11.97
2023-03-17T03:26:28.620Z,11.93
2023-03-17T03:28:58.443Z,12.83
2023-03-17T03:31:26.804Z,11.80
2023-03-17T03:33:54.192Z,12.20
2023-03-17T03:36:22.428Z,12.27
2023-03-17T03:38:49.817Z,13.13
2023-03-17T03:41:17.638Z,15.63
2023-03-17T03:43:45.296Z,14.57
2023-03-17T03:46:12.676Z,12.07
2023-03-17T03:48:40.084Z,13.23
2023-03-17T03:51:07.957Z,15.63
2023-03-17T03:53:35.674Z,13.67
2023-03-17T03:56:03.028Z,12.73
2023-03-17T03:58:30.696Z,12.43
2023-03-17T04:00:58.048Z,14.03
2023-03-17T04:03:25.869Z,13.00
2023-03-17T04:05:53.228Z,14.57
2023-03-17T04:08:20.966Z,15.90
2023-03-17T04:10:48.566Z,14.13
2023-03-17T04:13:15.921Z,12.17
2023-03-17T04:15:43.318Z,14.03
2023-03-17T04:18:11.585Z,12.93
2023-03-17T04:20:38.966Z,15.03
2023-03-17T04:23:06.631Z,14.93
2023-03-17T04:25:34.249Z,14.77
2023-03-17T04:28:01.792Z,14.33
2023-03-17T04:30:29.363Z,13.47
2023-03-17T04:32:57.202Z,16.97
2023-03-17T04:35:24.591Z,14.67
2023-03-17T04:37:51.997Z,12.53
2023-03-17T04:40:19.766Z,12.93
2023-03-17T04:42:47.179Z,13.73
2023-03-17T04:45:17.545Z,13.67
2023-03-17T04:47:48.037Z,15.90
2023-03-17T04:50:15.897Z,13.07
2023-03-17T04:52:43.550Z,16.90
2023-03-17T04:55:12.065Z,15.20
2023-03-17T04:57:39.413Z,17.83
2023-03-17T05:00:07.380Z,15.07
2023-03-17T05:02:35.262Z,12.63
2023-03-17T05:05:02.799Z,12.70
2023-03-17T05:07:32.737Z,15.53
2023-03-17T05:10:02.191Z,13.57
2023-03-17T05:12:29.604Z,19.07
2023-03-17T05:14:56.958Z,14.23
2023-03-17T05:17:24.592Z,16.97
2023-03-17T05:19:51.977Z,16.60
2023-03-17T05:22:19.474Z,21.50
2023-03-17T05:24:47.661Z,14.73
2023-03-17T05:27:15.166Z,13.83
2023-03-17T05:29:42.546Z,15.87
2023-03-17T05:32:10.242Z,15.77
2023-03-17T05:34:37.617Z,18.07
2023-03-17T05:37:04.957Z,17.60
2023-03-17T05:39:32.852Z,15.03
2023-03-17T05:42:00.582Z,16.63
2023-03-17T05:44:27.906Z,18.33
2023-03-17T05:46:55.888Z,16.50
2023-03-17T05:49:24.522Z,18.53
2023-03-17T05:51:51.869Z,18.77
2023-03-17T05:54:19.525Z,20.60
2023-03-17T05:56:47.176Z,22.43
2023-03-17T05:59:18.440Z,18.87
2023-03-17T06:01:46.138Z,27.40
2023-03-17T06:04:13.839Z,17.50
2023-03-17T06:06:41.285Z,20.57
2023-03-17T06:09:08.632Z,16.90
2023-03-17T06:11:36.989Z,20.00
2023-03-17T06:14:04.412Z,17.47
2023-03-17T06:16:33.254Z,19.87
2023-03-17T06:19:01.204Z,16.73
2023-03-17T06:21:28.610Z,17.97
2023-03-17T06:23:55.962Z,18.37
2023-03-17T06:26:23.602Z,23.97
2023-03-17T06:28:50.979Z,19.80
2023-03-17T06:31:18.384Z,23.90
2023-03-17T06:33:46.070Z,19.63
2023-03-17T06:36:13.749Z,21.70
2023-03-17T06:38:41.567Z,21.43
2023-03-17T06:41:09.607Z,25.93
2023-03-17T06:43:37.465Z,16.53
2023-03-17T06:46:05.682Z,23.87
2023-03-17T06:48:34.094Z,19.10
2023-03-17T06:51:01.698Z,18.73
2023-03-17T06:53:29.053Z,17.17
2023-03-17T06:55:56.902Z,16.40
2023-03-17T06:58:24.884Z,15.67
2023-03-17T07:00:54.175Z,14.37
2023-03-17T07:03:22.762Z,15.53
2023-03-17T07:05:50.153Z,21.70
2023-03-17T07:08:18.004Z,15.03
2023-03-17T07:10:45.974Z,14.00
2023-03-17T07:13:13.692Z,20.87
2023-03-17T07:15:41.086Z,12.80
2023-03-17T07:18:08.756Z,11.43
2023-03-17T07:20:36.486Z,12.83
2023-03-17T07:23:03.881Z,17.42
2023-03-17T07:25:31.737Z,14.40
2023-03-17T07:27:59.445Z,12.40
2023-03-17T07:30:27.754Z,12.85
2023-03-17T07:32:55.458Z,12.20
2023-03-17T07:35:23.487Z,14.70
2023-03-17T07:37:50.984Z,11.90
2023-03-17T07:40:18.759Z,11.50
2023-03-17T07:42:46.139Z,15.55
2023-03-17T07:45:13.529Z,12.50
2023-03-17T07:47:41.545Z,15.02
2023-03-17T07:50:09.718Z,14.82
2023-03-17T07:52:38.100Z,12.82
2023-03-17T07:55:08.541Z,13.13
2023-03-17T07:57:36.410Z,13.93
2023-03-17T08:00:10.215Z,14.02
2023-03-17T08:02:39.181Z,14.68
2023-03-17T08:05:07.723Z,14.87
2023-03-17T08:07:36.173Z,13.15
2023-03-17T08:10:07.503Z,13.60
2023-03-17T08:12:35.485Z,12.25
2023-03-17T08:15:02.842Z,13.57
2023-03-17T08:17:30.201Z,13.30
2023-03-17T08:19:58.674Z,12.07
2023-03-17T08:22:26.113Z,16.08
2023-03-17T08:24:53.709Z,15.00
2023-03-17T08:27:21.436Z,16.85
2023-03-17T08:29:49.911Z,11.77
2023-03-17T08:32:17.809Z,15.85
2023-03-17T08:34:46.248Z,12.75
2023-03-17T08:37:14.021Z,14.13
2023-03-17T08:39:41.556Z,17.05
2023-03-17T08:42:09.218Z,12.52
2023-03-17T08:44:37.251Z,15.93
2023-03-17T08:47:04.737Z,11.60
2023-03-17T08:49:34.872Z,12.27
2023-03-17T08:52:02.831Z,12.00
2023-03-17T08:54:30.281Z,11.45
2023-03-17T08:56:58.403Z,13.65
2023-03-17T08:59:25.870Z,10.95
2023-03-17T09:01:53.232Z,11.30
2023-03-17T09:04:20.985Z,10.75
2023-03-17T09:07:02.305Z,11.48
2023-03-17T09:09:32.236Z,11.18
2023-03-17T09:11:59.964Z,12.35
2023-03-17T09:14:27.575Z,12.43
2023-03-17T09:16:55.528Z,12.73
2023-03-17T09:19:23.841Z,11.05
2023-03-17T09:21:52.067Z,11.10
2023-03-17T09:24:20.104Z,11.82
2023-03-17T09:26:47.507Z,10.73
2023-03-17T09:29:15.846Z,12.05
2023-03-17T09:31:43.853Z,10.65
2023-03-17T09:34:11.270Z,9.90
2023-03-17T09:36:38.768Z,13.23
2023-03-17T09:39:06.652Z,11.35
2023-03-17T09:41:57.812Z,11.40
2023-03-17T09:44:38.604Z,10.55
2023-03-17T09:47:13.897Z,11.32
2023-03-17T09:49:58.713Z,12.82
2023-03-17T09:52:31.168Z,12.65
2023-03-17T09:54:58.800Z,11.93
2023-03-17T09:57:30.822Z,13.23
2023-03-17T10:00:07.891Z,12.15
2023-03-17T10:02:37.653Z,14.10
2023-03-17T10:05:17.739Z,14.10
2023-03-17T10:07:47.280Z,13.23
2023-03-17T10:10:21.758Z,12.68
2023-03-17T10:12:58.372Z,12.73
2023-03-17T10:15:32.578Z,11.02
2023-03-17T10:18:00.398Z,14.38
2023-03-17T10:20:28.923Z,13.98
2023-03-17T10:23:05.082Z,14.50
2023-03-17T10:25:36.745Z,19.17
2023-03-17T10:28:36.520Z,12.73
2023-03-17T10:31:19.684Z,45.25
2023-03-17T10:33:49.265Z,47.53
2023-03-17T10:36:17.607Z,15.20
2023-03-17T10:38:54.301Z,13.27
2023-03-17T10:41:22.304Z,16.17
2023-03-17T10:43:53.623Z,11.38
2023-03-17T10:46:23.301Z,11.63
2023-03-17T10:48:56.385Z,16.15
2023-03-17T10:51:32.024Z,11.40
2023-03-17T10:54:01.700Z,12.30
2023-03-17T10:56:31.994Z,13.52
2023-03-17T10:58:59.814Z,11.75
2023-03-17T11:01:42.119Z,12.27
2023-03-17T11:04:38.372Z,15.52
2023-03-17T11:07:15.370Z,11.60
2023-03-17T11:09:43.198Z,14.15
2023-03-17T11:12:25.543Z,11.75
2023-03-17T11:15:00.903Z,11.75
2023-03-17T11:17:36.915Z,11.12
2023-03-17T11:20:15.392Z,18.58
2023-03-17T11:22:47.830Z,12.27
2023-03-17T11:25:19.373Z,11.30
2023-03-17T11:27:58.470Z,12.02
2023-03-17T11:30:40.084Z,11.07
2023-03-17T11:33:17.233Z,11.73
2023-03-17T11:36:28.519Z,11.75
2023-03-17T11:38:59.771Z,15.15
2023-03-17T11:42:06.949Z,12.98
2023-03-17T11:45:19.651Z,11.50
2023-03-17T11:48:06.110Z,12.73
2023-03-17T11:50:56.594Z,13.00
2023-03-17T11:53:24.174Z,13.48
2023-03-17T11:56:04.296Z,14.95
2023-03-17T11:58:41.252Z,11.43
2023-03-17T12:01:17.121Z,11.98
2023-03-17T12:04:10.855Z,12.18
2023-03-17T12:06:52.735Z,11.43
2023-03-17T12:09:26.990Z,11.70
2023-03-17T12:11:54.872Z,14.50
2023-03-17T12:14:32.604Z,15.05
2023-03-17T12:17:05.288Z,12.15
2023-03-17T12:19:42.673Z,12.20
2023-03-17T12:22:18.936Z,16.12
2023-03-17T12:27:42.962Z,16.80
2023-03-17T12:30:17.150Z,12.35
2023-03-17T12:32:47.124Z,12.68
2023-03-17T12:35:33.651Z,11.25
2023-03-17T12:38:09.000Z,11.50
2023-03-17T12:41:03.114Z,12.43
2023-03-17T12:44:09.063Z,12.70
2023-03-17T12:46:46.434Z,14.38
2023-03-17T12:49:32.658Z,12.50
2023-03-17T12:52:06.406Z,11.82
2023-03-17T12:54:36.406Z,16.05
2023-03-17T12:57:15.616Z,12.00
2023-03-17T12:59:43.913Z,14.43
2023-03-17T13:02:31.027Z,13.10
2023-03-17T13:05:00.953Z,11.82
2023-03-17T13:07:38.800Z,12.07
2023-03-17T13:10:18.855Z,11.68
2023-03-17T13:12:49.096Z,11.77
2023-03-17T13:15:25.184Z,12.35
2023-03-17T13:18:22.893Z,11.85
2023-03-17T13:20:56.263Z,13.15
2023-03-17T13:23:42.684Z,12.43
2023-03-17T13:26:15.281Z,11.95
2023-03-17T13:28:45.606Z,12.05
2023-03-17T13:31:31.180Z,12.57
2023-03-17T13:34:14.435Z,13.68
2023-03-17T13:36:55.949Z,12.52
2023-03-17T13:39:34.472Z,14.23
2023-03-17T13:42:17.969Z,11.77
2023-03-17T13:45:04.186Z,12.30
2023-03-17T13:47:31.873Z,12.90
2023-03-17T13:50:07.742Z,12.15
2023-03-17T13:52:42.110Z,15.50
2023-03-17T13:55:18.628Z,11.32
2023-03-17T13:57:58.359Z,12.73
2023-03-17T14:00:27.448Z,12.77
2023-03-17T14:03:02.092Z,12.40
2023-03-17T14:05:35.909Z,11.88
2023-03-17T14:08:15.606Z,12.15
2023-03-17T14:10:45.910Z,14.40
2023-03-17T14:13:21.816Z,11.75
2023-03-17T14:16:06.964Z,11.17
2023-03-17T14:18:52.087Z,13.85
2023-03-17T14:21:22.214Z,11.02
2023-03-17T14:23:56.664Z,11.52
2023-03-17T14:26:30.895Z,11.00
2023-03-17T14:29:02.803Z,11.10
2023-03-17T14:31:30.464Z,12.15
2023-03-17T14:33:58.991Z,10.80
2023-03-17T14:36:27.544Z,11.18
2023-03-17T14:38:56.183Z,13.00
2023-03-17T14:41:27.439Z,11.18
2023-03-17T14:43:58.689Z,13.77
2023-03-17T14:46:41.131Z,12.32
2023-03-17T14:49:16.951Z,10.25
2023-03-17T14:51:44.351Z,11.20
2023-03-17T14:54:41.328Z,13.65
2023-03-17T14:57:12.023Z,12.48
2023-03-17T14:59:43.639Z,10.38
2023-03-17T15:02:20.264Z,11.48
2023-03-17T15:04:59.793Z,10.98
2023-03-17T15:07:39.711Z,11.15
2023-03-17T15:10:21.577Z,11.63
2023-03-17T15:12:49.251Z,13.23
2023-03-17T15:15:21.971Z,11.45
2023-03-17T15:17:54.700Z,11.95
2023-03-17T15:20:22.557Z,11.95
2023-03-17T15:23:00.181Z,12.25
2023-03-17T15:25:36.978Z,11.73
2023-03-17T15:30:56.921Z,13.10
2023-03-17T15:33:37.354Z,13.82
2023-03-17T15:36:05.301Z,11.30
2023-03-17T15:38:33.671Z,13.98
2023-03-17T15:41:01.085Z,10.75
2023-03-17T15:43:28.688Z,11.15
2023-03-17T15:46:07.750Z,13.52
2023-03-17T15:48:36.264Z,13.62
2023-03-17T15:51:05.191Z,11.70
2023-03-17T15:53:32.542Z,13.15
2023-03-17T15:56:00.383Z,12.63
2023-03-17T15:58:28.387Z,11.18
2023-03-17T16:00:57.278Z,16.42
2023-03-17T16:03:29.049Z,11.95
2023-03-17T16:05:56.402Z,12.88
2023-03-17T16:08:24.839Z,12.52
2023-03-17T16:10:52.472Z,12.32
2023-03-17T16:13:19.866Z,14.25
2023-03-17T16:15:53.642Z,13.40
2023-03-17T16:18:27.287Z,17.77
2023-03-17T16:20:54.732Z,14.25
2023-03-17T16:23:23.709Z,13.48
2023-03-17T16:25:51.748Z,16.60
2023-03-17T16:28:25.519Z,16.73
2023-03-17T16:30:54.524Z,17.48
2023-03-17T16:33:26.476Z,18.60
2023-03-17T16:35:55.484Z,13.93
2023-03-17T16:38:27.655Z,13.50
2023-03-17T16:41:17.093Z,15.52
2023-03-17T16:43:45.143Z,22.65
2023-03-17T16:46:12.820Z,13.20
2023-03-17T16:48:40.262Z,16.15
2023-03-17T16:51:07.644Z,13.00
2023-03-17T16:53:35.390Z,12.18
2023-03-17T16:56:02.746Z,12.37
2023-03-17T16:58:32.290Z,17.98
2023-03-17T17:01:01.693Z,14.07
2023-03-17T17:03:29.537Z,13.93
2023-03-17T17:05:57.366Z,15.30
2023-03-17T17:08:25.393Z,15.73
2023-03-17T17:10:52.780Z,12.80
2023-03-17T17:13:20.172Z,14.40
2023-03-17T17:15:47.845Z,16.12
2023-03-17T17:18:16.816Z,13.32
2023-03-17T17:20:44.688Z,20.23
2023-03-17T17:23:17.696Z,14.50
2023-03-17T17:25:45.378Z,17.15
2023-03-17T17:28:14.415Z,17.67
2023-03-17T17:30:45.054Z,16.90
2023-03-17T17:33:12.747Z,17.55
2023-03-17T17:35:40.309Z,19.83
2023-03-17T17:38:19.607Z,16.83
2023-03-17T17:40:47.275Z,22.23
2023-03-17T17:43:14.641Z,17.58
2023-03-17T17:45:42.065Z,21.08
2023-03-17T17:48:10.728Z,20.58
2023-03-17T17:50:38.077Z,19.83
2023-03-17T17:53:08.630Z,20.88
2023-03-17T17:55:36.262Z,21.27
2023-03-17T17:58:03.702Z,17.60
2023-03-17T18:00:31.297Z,18.60
2023-03-17T18:02:59.080Z,20.70
2023-03-17T18:05:26.462Z,17.87
2023-03-17T18:07:53.812Z,21.67
2023-03-17T18:10:24.050Z,22.98
2023-03-17T18:12:51.755Z,20.75
2023-03-17T18:15:20.305Z,20.45
2023-03-17T18:17:48.111Z,24.73
2023-03-17T18:20:17.217Z,20.02
2023-03-17T18:22:44.649Z,22.55
2023-03-17T18:25:12.890Z,23.33
2023-03-17T18:27:40.243Z,26.60
2023-03-17T18:30:08.972Z,25.83
2023-03-17T18:32:37.178Z,26.83
2023-03-17T18:35:08.023Z,31.80
2023-03-17T18:37:35.789Z,32.78
2023-03-17T18:40:14.267Z,36.72
2023-03-17T18:42:43.675Z,38.38
2023-03-17T18:45:11.733Z,31.65
2023-03-17T18:47:40.144Z,32.92
2023-03-17T18:50:08.184Z,31.55
2023-03-17T18:52:36.732Z,28.42
2023-03-17T18:55:04.415Z,25.23
2023-03-17T18:57:31.781Z,31.42
2023-03-17T18:59:59.484Z,26.42
2023-03-17T19:02:26.818Z,32.53
2023-03-17T19:04:54.182Z,28.48
2023-03-17T19:07:22.388Z,26.20
2023-03-17T19:09:49.756Z,28.10
2023-03-17T19:12:17.081Z,28.10
2023-03-17T19:14:44.685Z,25.48
2023-03-17T19:17:12.039Z,26.87
2023-03-17T19:19:41.329Z,34.35
2023-03-17T19:22:09.568Z,32.15
2023-03-17T19:24:37.625Z,29.12
2023-03-17T19:27:05.307Z,25.23
2023-03-17T19:29:33.431Z,23.92
2023-03-17T19:32:00.813Z,25.65
2023-03-17T19:34:28.194Z,28.48
2023-03-17T19:36:55.846Z,26.10
2023-03-17T19:39:23.273Z,26.52
2023-03-17T19:41:53.319Z,22.30
2023-03-17T19:44:22.024Z,26.85
2023-03-17T19:46:49.436Z,26.83
2023-03-17T19:49:16.947Z,26.12
2023-03-17T19:51:44.589Z,22.02
2023-03-17T19:54:11.973Z,19.62
2023-03-17T19:56:39.432Z,23.20
2023-03-17T19:59:07.433Z,24.20
2023-03-17T20:01:37.840Z,21.37
2023-03-17T20:04:06.981Z,25.55
2023-03-17T20:06:34.729Z,20.12
2023-03-17T20:09:04.180Z,20.33
2023-03-17T20:11:34.002Z,20.30
2023-03-17T20:14:02.215Z,21.73
2023-03-17T20:16:32.664Z,21.87
2023-03-17T20:19:00.817Z,18.40
2023-03-17T20:21:28.318Z,21.57
2023-03-17T20:23:56.327Z,24.23
2023-03-17T20:26:24.565Z,23.27
2023-03-17T20:28:52.106Z,26.70
2023-03-17T20:31:19.666Z,25.87
2023-03-17T20:33:47.355Z,26.17
2023-03-17T20:36:14.707Z,30.83
2023-03-17T20:38:43.677Z,25.90
2023-03-17T20:41:13.660Z,27.98
2023-03-17T20:43:41.618Z,26.10
2023-03-17T20:46:12.629Z,23.63
2023-03-17T20:48:40.818Z,20.00
2023-03-17T20:51:15.624Z,22.70
2023-03-17T20:53:47.660Z,23.40
2023-03-17T20:56:19.756Z,19.58
2023-03-17T20:58:48.476Z,20.27
2023-03-17T21:01:17.518Z,20.98
2023-03-17T21:03:47.206Z,18.67
2023-03-17T21:06:14.804Z,19.40
2023-03-17T21:08:42.381Z,19.03
2023-03-17T21:11:14.591Z,21.12
2023-03-17T21:13:42.817Z,19.13
2023-03-17T21:16:18.057Z,17.07
2023-03-17T21:18:45.461Z,18.48
2023-03-17T21:21:13.259Z,17.37
2023-03-17T21:23:41.658Z,19.05
2023-03-17T21:26:09.261Z,18.75
2023-03-17T21:28:38.261Z,19.48
2023-03-17T21:31:06.859Z,20.10
2023-03-17T21:33:34.650Z,20.25
2023-03-17T21:36:02.338Z,18.58
2023-03-17T21:38:29.834Z,22.17
2023-03-17T21:40:57.772Z,20.87
2023-03-17T21:43:25.442Z,20.85
2023-03-17T21:45:52.995Z,20.35
2023-03-17T21:48:20.787Z,17.37
2023-03-17T21:50:49.161Z,17.33
2023-03-17T21:53:16.526Z,23.37
2023-03-17T21:55:44.008Z,20.27
2023-03-17T21:58:11.711Z,19.45
2023-03-17T22:00:45.251Z,24.90
2023-03-17T22:03:13.754Z,19.50
2023-03-17T22:05:41.145Z,21.67
2023-03-17T22:08:08.629Z,21.95
2023-03-17T22:10:36.237Z,19.97
2023-03-17T22:13:03.601Z,21.77
2023-03-17T22:15:31.151Z,18.37
2023-03-17T22:17:59.207Z,19.40
2023-03-17T22:20:26.552Z,18.15
2023-03-17T22:22:53.936Z,21.15
2023-03-17T22:25:23.438Z,16.50
2023-03-17T22:27:50.755Z,17.33
2023-03-17T22:30:18.966Z,19.20
2023-03-17T22:32:46.873Z,18.35
2023-03-17T22:35:14.361Z,18.73
2023-03-17T22:37:42.001Z,16.65
2023-03-17T22:40:10.201Z,18.53
2023-03-17T22:42:37.902Z,20.45
2023-03-17T22:45:06.312Z,16.97
2023-03-17T22:47:33.931Z,15.77
2023-03-17T22:50:01.515Z,22.60
2023-03-17T22:52:28.991Z,17.35
2023-03-17T22:54:56.732Z,16.23
2023-03-17T22:57:24.089Z,19.70
2023-03-17T22:59:52.309Z,19.27
2023-03-17T23:02:19.918Z,21.10
2023-03-17T23:04:47.300Z,17.13
2023-03-17T23:07:14.818Z,16.20
2023-03-17T23:09:43.423Z,18.37
2023-03-17T23:12:11.525Z,16.00
2023-03-17T23:14:39.031Z,16.12
2023-03-17T23:17:07.741Z,16.75
2023-03-17T23:19:35.427Z,20.83
2023-03-17T23:22:02.985Z,18.12
2023-03-17T23:24:30.740Z,15.53
2023-03-17T23:26:58.135Z,16.13
2023-03-17T23:29:25.546Z,15.00
2023-03-17T23:31:53.364Z,15.90
2023-03-17T23:34:20.773Z,15.48
2023-03-17T23:36:48.118Z,14.70
2023-03-17T23:39:16.350Z,13.73
2023-03-17T23:41:45.050Z,16.07
2023-03-17T23:44:12.410Z,17.13
2023-03-17T23:46:40.164Z,16.73
2023-03-17T23:49:07.573Z,16.00
2023-03-17T23:51:35.489Z,14.97
2023-03-17T23:54:04.065Z,14.47
2023-03-17T23:56:32.336Z,15.57
2023-03-17T23:58:59.823Z,15.27
